createdAt,value
2017-06-24T00:00:42.263Z,0
2017-06-24T00:01:43.516Z,0
2017-06-24T00:02:44.790Z,0
2017-06-24T00:03:46.081Z,0
2017-06-24T00:04:47.458Z,0
2017-06-24T00:05:48.743Z,0
2017-06-24T00:06:50.054Z,0
2017-06-24T00:07:51.311Z,0
2017-06-24T00:08:52.566Z,0
2017-06-24T00:09:53.835Z,0
2017-06-24T00:10:55.073Z,0
2017-06-24T00:11:56.380Z,0
2017-06-24T00:12:57.834Z,0
2017-06-24T00:13:59.089Z,0
2017-06-24T00:15:00.407Z,0
2017-06-24T00:16:01.700Z,0
2017-06-24T00:17:02.976Z,0
2017-06-24T00:18:04.321Z,0
2017-06-24T00:19:05.571Z,0
2017-06-24T00:20:06.931Z,0
2017-06-24T00:21:08.235Z,0
2017-06-24T00:22:09.523Z,0
2017-06-24T00:23:10.779Z,0
2017-06-24T00:24:12.105Z,0
2017-06-24T00:25:13.379Z,0
2017-06-24T00:26:14.699Z,0
2017-06-24T00:27:15.972Z,0
2017-06-24T00:28:17.227Z,0
2017-06-24T00:29:18.494Z,0
2017-06-24T00:30:19.757Z,0
2017-06-24T00:31:21.012Z,0
2017-06-24T00:32:22.382Z,0
2017-06-24T00:33:23.730Z,0
2017-06-24T00:34:24.979Z,0
2017-06-24T00:35:26.220Z,0
2017-06-24T00:36:27.517Z,0
2017-06-24T00:37:28.900Z,0
2017-06-24T00:38:30.173Z,0
2017-06-24T00:39:31.536Z,0
2017-06-24T00:40:32.807Z,0
2017-06-24T00:41:34.135Z,0
2017-06-24T00:42:35.407Z,0
2017-06-24T00:43:36.681Z,0
2017-06-24T00:44:38.041Z,0
2017-06-24T00:45:39.268Z,0
2017-06-24T00:46:40.529Z,0
2017-06-24T00:47:41.796Z,0
2017-06-24T00:48:43.149Z,0
2017-06-24T00:49:44.500Z,0
2017-06-24T00:50:45.813Z,0
2017-06-24T00:51:47.104Z,0
2017-06-24T00:52:48.388Z,0
2017-06-24T00:53:49.651Z,0
2017-06-24T00:54:50.939Z,0
2017-06-24T00:55:52.335Z,0
2017-06-24T00:56:53.619Z,0
2017-06-24T00:57:54.906Z,0
2017-06-24T00:58:56.172Z,0
2017-06-24T00:59:57.391Z,0
2017-06-24T01:00:58.688Z,0
2017-06-24T01:01:59.931Z,0
2017-06-24T01:03:01.248Z,0
2017-06-24T01:04:02.504Z,0
2017-06-24T01:05:03.765Z,0
2017-06-24T01:06:05.072Z,0
2017-06-24T01:07:06.420Z,0
2017-06-24T01:08:07.663Z,0
2017-06-24T01:09:08.933Z,0
2017-06-24T01:10:10.192Z,0
2017-06-24T01:11:11.428Z,0
2017-06-24T01:12:12.699Z,0
2017-06-24T01:13:13.981Z,0
2017-06-24T01:14:15.319Z,0
2017-06-24T01:15:16.578Z,0
2017-06-24T01:16:17.975Z,0
2017-06-24T01:17:19.262Z,0
2017-06-24T01:18:20.539Z,0
2017-06-24T01:19:21.840Z,0
2017-06-24T01:20:23.093Z,0
2017-06-24T01:21:24.374Z,0
2017-06-24T01:22:25.652Z,0
2017-06-24T01:23:26.953Z,0
2017-06-24T01:24:28.215Z,0
2017-06-24T01:25:29.517Z,0
2017-06-24T01:26:30.791Z,0
2017-06-24T01:27:32.066Z,0
2017-06-24T01:28:33.333Z,0
2017-06-24T01:29:34.624Z,0
2017-06-24T01:30:35.936Z,0
2017-06-24T01:31:37.195Z,0
2017-06-24T01:32:38.490Z,0
2017-06-24T01:33:39.752Z,0
2017-06-24T01:34:41.067Z,0
2017-06-24T01:35:42.378Z,0
2017-06-24T01:36:43.740Z,0
2017-06-24T01:37:45.012Z,0
2017-06-24T01:38:46.269Z,0
2017-06-24T01:39:47.553Z,0
2017-06-24T01:40:48.800Z,0
2017-06-24T01:41:50.232Z,0
2017-06-24T01:42:51.501Z,0
2017-06-24T01:43:52.711Z,0
2017-06-24T01:44:54.098Z,0
2017-06-24T01:45:55.355Z,0
2017-06-24T01:46:56.661Z,0
2017-06-24T01:47:58.007Z,0
2017-06-24T01:48:59.269Z,0
2017-06-24T01:50:00.556Z,0
2017-06-24T01:51:01.837Z,0
2017-06-24T01:52:03.166Z,0
2017-06-24T01:53:04.458Z,0
2017-06-24T01:54:05.745Z,0
2017-06-24T01:55:07.016Z,0
2017-06-24T01:56:08.306Z,0
2017-06-24T01:57:09.562Z,0
2017-06-24T01:58:10.835Z,0
2017-06-24T01:59:12.174Z,0
2017-06-24T02:00:13.569Z,0
2017-06-24T02:01:14.832Z,0
2017-06-24T02:02:16.111Z,0
2017-06-24T02:03:17.448Z,0
2017-06-24T02:04:18.729Z,0
2017-06-24T02:05:20.016Z,0
2017-06-24T02:06:21.353Z,0
2017-06-24T02:07:22.584Z,0
2017-06-24T02:08:23.838Z,0
2017-06-24T02:09:25.082Z,0
2017-06-24T02:10:26.372Z,0
2017-06-24T02:11:27.678Z,0
2017-06-24T02:12:28.921Z,0
2017-06-24T02:13:30.174Z,0
2017-06-24T02:14:31.478Z,0
2017-06-24T02:15:32.726Z,0
2017-06-24T02:16:34.115Z,0
2017-06-24T02:17:35.390Z,0
2017-06-24T02:18:36.652Z,0
2017-06-24T02:19:37.943Z,0
2017-06-24T02:20:39.259Z,0
2017-06-24T02:21:40.534Z,0
2017-06-24T02:22:41.843Z,0
2017-06-24T02:23:43.107Z,0
2017-06-24T02:24:44.358Z,0
2017-06-24T02:25:45.602Z,0
2017-06-24T02:26:46.852Z,0
2017-06-24T02:27:48.197Z,0
2017-06-24T02:28:49.465Z,0
2017-06-24T02:29:50.730Z,0
2017-06-24T02:30:51.983Z,0
2017-06-24T02:31:53.249Z,4
2017-06-24T02:32:54.494Z,4
2017-06-24T02:33:55.847Z,4
2017-06-24T02:34:57.107Z,4
2017-06-24T02:35:58.476Z,4
2017-06-24T02:36:59.718Z,4
2017-06-24T02:38:00.983Z,4
2017-06-24T02:39:02.211Z,4
2017-06-24T02:40:03.567Z,8
2017-06-24T02:41:04.812Z,4
2017-06-24T02:42:06.120Z,8
2017-06-24T02:43:07.411Z,8
2017-06-24T02:44:08.715Z,12
2017-06-24T02:45:09.964Z,12
2017-06-24T02:46:11.195Z,12
2017-06-24T02:47:12.476Z,16
2017-06-24T02:48:13.757Z,16
2017-06-24T02:49:15.051Z,16
2017-06-24T02:50:16.311Z,20
2017-06-24T02:51:17.616Z,24
2017-06-24T02:52:18.879Z,24
2017-06-24T02:53:20.248Z,24
2017-06-24T02:54:21.561Z,28
2017-06-24T02:55:22.838Z,28
2017-06-24T02:56:24.147Z,32
2017-06-24T02:57:25.424Z,36
2017-06-24T02:58:26.711Z,36
2017-06-24T02:59:28.000Z,40
2017-06-24T03:00:29.311Z,48
2017-06-24T03:01:30.550Z,52
2017-06-24T03:02:31.820Z,60
2017-06-24T03:03:33.340Z,64
2017-06-24T03:04:34.610Z,68
2017-06-24T03:05:35.889Z,72
2017-06-24T03:06:37.139Z,80
2017-06-24T03:07:38.384Z,80
2017-06-24T03:08:39.622Z,88
2017-06-24T03:09:40.880Z,92
2017-06-24T03:10:42.308Z,104
2017-06-24T03:11:43.559Z,108
2017-06-24T03:12:44.818Z,120
2017-06-24T03:13:46.095Z,124
2017-06-24T03:14:47.364Z,136
2017-06-24T03:15:48.689Z,144
2017-06-24T03:16:49.942Z,152
2017-06-24T03:17:51.207Z,160
2017-06-24T03:18:52.483Z,168
2017-06-24T03:19:53.745Z,176
2017-06-24T03:20:55.048Z,192
2017-06-24T03:21:56.281Z,204
2017-06-24T03:22:57.661Z,216
2017-06-24T03:23:58.918Z,244
2017-06-24T03:25:00.202Z,260
2017-06-24T03:26:01.457Z,268
2017-06-24T03:27:02.811Z,272
2017-06-24T03:28:04.115Z,284
2017-06-24T03:29:05.379Z,296
2017-06-24T03:30:06.633Z,304
2017-06-24T03:31:07.920Z,316
2017-06-24T03:32:09.171Z,324
2017-06-24T03:33:10.495Z,340
2017-06-24T03:34:11.922Z,352
2017-06-24T03:35:13.166Z,368
2017-06-24T03:36:14.436Z,388
2017-06-24T03:37:15.685Z,404
2017-06-24T03:38:17.054Z,424
2017-06-24T03:39:18.333Z,444
2017-06-24T03:40:19.630Z,460
2017-06-24T03:41:20.920Z,472
2017-06-24T03:42:22.190Z,488
2017-06-24T03:43:23.467Z,504
2017-06-24T03:44:24.754Z,532
2017-06-24T03:45:26.149Z,564
2017-06-24T03:46:27.405Z,584
2017-06-24T03:47:28.692Z,608
2017-06-24T03:48:29.977Z,624
2017-06-24T03:49:31.299Z,656
2017-06-24T03:50:32.624Z,668
2017-06-24T03:51:33.943Z,672
2017-06-24T03:52:35.212Z,672
2017-06-24T03:53:36.477Z,676
2017-06-24T03:54:37.786Z,680
2017-06-24T03:55:39.075Z,692
2017-06-24T03:56:40.444Z,700
2017-06-24T03:57:41.695Z,708
2017-06-24T03:58:42.953Z,712
2017-06-24T03:59:44.247Z,732
2017-06-24T04:00:45.504Z,756
2017-06-24T04:01:46.729Z,796
2017-06-24T04:02:48.123Z,788
2017-06-24T04:03:49.373Z,780
2017-06-24T04:04:50.607Z,824
2017-06-24T04:05:51.927Z,868
2017-06-24T04:06:53.196Z,880
2017-06-24T04:07:54.493Z,880
2017-06-24T04:08:55.879Z,932
2017-06-24T04:09:57.121Z,984
2017-06-24T04:10:58.360Z,1032
2017-06-24T04:11:59.637Z,1064
2017-06-24T04:13:00.947Z,1092
2017-06-24T04:14:02.221Z,1108
2017-06-24T04:15:03.512Z,1120
2017-06-24T04:16:04.759Z,1124
2017-06-24T04:17:06.128Z,1136
2017-06-24T04:18:07.389Z,1232
2017-06-24T04:19:08.667Z,1416
2017-06-24T04:20:09.982Z,1632
2017-06-24T04:21:11.286Z,1800
2017-06-24T04:22:12.543Z,1920
2017-06-24T04:23:13.843Z,1848
2017-06-24T04:24:15.210Z,1916
2017-06-24T04:25:16.543Z,2084
2017-06-24T04:26:17.789Z,2132
2017-06-24T04:27:19.054Z,2092
2017-06-24T04:28:20.324Z,2024
2017-06-24T04:29:21.585Z,1992
2017-06-24T04:30:22.952Z,1924
2017-06-24T04:31:24.255Z,1960
2017-06-24T04:32:25.529Z,2144
2017-06-24T04:33:26.773Z,2404
2017-06-24T04:34:28.048Z,2468
2017-06-24T04:35:29.321Z,2488
2017-06-24T04:36:30.653Z,2540
2017-06-24T04:37:31.905Z,2356
2017-06-24T04:38:33.166Z,2124
2017-06-24T04:39:34.433Z,2108
2017-06-24T04:40:35.730Z,2188
2017-06-24T04:41:37.021Z,2148
2017-06-24T04:42:38.410Z,1984
2017-06-24T04:43:39.693Z,1944
2017-06-24T04:44:40.950Z,2000
2017-06-24T04:45:42.219Z,2284
2017-06-24T04:46:43.506Z,2756
2017-06-24T04:47:44.795Z,2732
2017-06-24T04:48:46.186Z,2912
2017-06-24T04:49:47.500Z,3144
2017-06-24T04:50:48.776Z,3324
2017-06-24T04:51:50.053Z,3268
2017-06-24T04:52:51.328Z,4020
2017-06-24T04:53:52.685Z,4636
2017-06-24T04:54:53.926Z,4664
2017-06-24T04:55:55.239Z,5540
2017-06-24T04:56:56.488Z,4476
2017-06-24T04:57:57.766Z,3524
2017-06-24T04:58:59.092Z,3156
2017-06-24T05:00:00.376Z,2848
2017-06-24T05:01:01.742Z,3564
2017-06-24T05:02:03.003Z,3104
2017-06-24T05:03:04.270Z,2444
2017-06-24T05:04:05.574Z,2604
2017-06-24T05:05:06.831Z,2660
2017-06-24T05:06:08.129Z,2536
2017-06-24T05:07:09.423Z,2812
2017-06-24T05:08:10.725Z,2756
2017-06-24T05:09:12.039Z,2496
2017-06-24T05:10:13.248Z,2492
2017-06-24T05:11:14.516Z,2208
2017-06-24T05:12:15.791Z,2140
2017-06-24T05:13:17.085Z,1984
2017-06-24T05:14:18.348Z,1796
2017-06-24T05:15:19.647Z,1808
2017-06-24T05:16:20.905Z,2100
2017-06-24T05:17:22.257Z,2212
2017-06-24T05:18:23.552Z,2168
2017-06-24T05:19:24.867Z,2180
2017-06-24T05:20:26.090Z,2524
2017-06-24T05:21:27.370Z,2772
2017-06-24T05:22:28.728Z,2856
2017-06-24T05:23:29.979Z,3016
2017-06-24T05:24:31.244Z,3268
2017-06-24T05:25:32.495Z,3344
2017-06-24T05:26:33.790Z,3000
2017-06-24T05:27:35.057Z,3008
2017-06-24T05:28:36.320Z,3572
2017-06-24T05:29:37.591Z,4048
2017-06-24T05:30:38.855Z,4200
2017-06-24T05:31:40.203Z,4496
2017-06-24T05:32:41.476Z,4720
2017-06-24T05:33:42.752Z,5304
2017-06-24T05:34:44.140Z,5304
2017-06-24T05:35:45.456Z,6752
2017-06-24T05:36:46.750Z,7296
2017-06-24T05:37:48.035Z,7208
2017-06-24T05:38:49.254Z,6136
2017-06-24T05:39:50.553Z,4792
2017-06-24T05:40:51.786Z,4520
2017-06-24T05:41:53.112Z,5512
2017-06-24T05:42:54.374Z,5716
2017-06-24T05:43:55.662Z,4548
2017-06-24T05:44:56.964Z,3948
2017-06-24T05:45:58.230Z,3440
2017-06-24T05:46:59.536Z,3024
2017-06-24T05:48:00.808Z,3564
2017-06-24T05:49:02.129Z,4460
2017-06-24T05:50:03.418Z,4872
2017-06-24T05:51:04.686Z,4272
2017-06-24T05:52:05.973Z,3840
2017-06-24T05:53:07.283Z,3436
2017-06-24T05:54:08.544Z,3604
2017-06-24T05:55:09.835Z,3756
2017-06-24T05:56:11.076Z,4808
2017-06-24T05:57:12.325Z,5916
2017-06-24T05:58:13.612Z,5456
2017-06-24T05:59:14.910Z,5112
2017-06-24T06:00:16.210Z,4668
2017-06-24T06:01:17.434Z,5328
2017-06-24T06:02:18.750Z,5804
2017-06-24T06:03:20.031Z,5236
2017-06-24T06:04:21.276Z,5308
2017-06-24T06:05:22.545Z,4564
2017-06-24T06:06:23.796Z,4772
2017-06-24T06:07:25.032Z,5384
2017-06-24T06:08:26.298Z,4684
2017-06-24T06:09:27.545Z,4508
2017-06-24T06:10:28.854Z,3576
2017-06-24T06:11:30.287Z,3324
2017-06-24T06:12:31.487Z,3416
2017-06-24T06:13:32.767Z,3724
2017-06-24T06:14:34.046Z,4172
2017-06-24T06:15:35.295Z,3840
2017-06-24T06:16:36.629Z,4596
2017-06-24T06:17:37.897Z,5256
2017-06-24T06:18:39.154Z,4744
2017-06-24T06:19:40.461Z,4460
2017-06-24T06:20:41.731Z,4360
2017-06-24T06:21:43.035Z,4796
2017-06-24T06:22:44.354Z,4052
2017-06-24T06:23:45.666Z,4364
2017-06-24T06:24:46.904Z,4368
2017-06-24T06:25:48.306Z,4812
2017-06-24T06:26:49.454Z,5224
2017-06-24T06:27:50.782Z,5468
2017-06-24T06:28:52.047Z,5420
2017-06-24T06:29:53.305Z,5396
2017-06-24T06:30:54.594Z,4940
2017-06-24T06:31:55.826Z,4696
2017-06-24T06:32:57.146Z,5592
2017-06-24T06:33:58.373Z,5556
2017-06-24T06:34:59.649Z,6668
2017-06-24T06:36:00.948Z,7076
2017-06-24T06:37:02.282Z,7116
2017-06-24T06:38:03.557Z,8156
2017-06-24T06:39:04.814Z,8536
2017-06-24T06:40:06.208Z,7752
2017-06-24T06:41:07.449Z,8440
2017-06-24T06:42:08.754Z,7556
2017-06-24T06:43:10.018Z,7712
2017-06-24T06:44:11.255Z,6880
2017-06-24T06:45:12.665Z,7336
2017-06-24T06:46:14.002Z,8348
2017-06-24T06:47:15.259Z,8424
2017-06-24T06:48:16.524Z,9220
2017-06-24T06:49:17.773Z,11996
2017-06-24T06:50:19.038Z,16388
2017-06-24T06:51:20.351Z,25536
2017-06-24T06:52:21.706Z,26336
2017-06-24T06:53:22.983Z,28960
2017-06-24T06:54:24.259Z,27264
2017-06-24T06:55:25.515Z,19136
2017-06-24T06:56:26.852Z,32192
2017-06-24T06:57:28.167Z,50080
2017-06-24T06:58:29.434Z,20768
2017-06-24T06:59:30.699Z,18336
2017-06-24T07:00:31.958Z,18752
2017-06-24T07:01:33.279Z,15844
2017-06-24T07:02:34.558Z,15096
2017-06-24T07:03:35.903Z,12312
2017-06-24T07:04:37.166Z,11500
2017-06-24T07:05:38.487Z,10148
2017-06-24T07:06:39.795Z,9444
2017-06-24T07:07:41.089Z,12620
2017-06-24T07:08:42.476Z,12800
2017-06-24T07:09:43.869Z,12416
2017-06-24T07:10:45.197Z,10304
2017-06-24T07:11:46.516Z,9796
2017-06-24T07:12:47.748Z,9180
2017-06-24T07:13:49.078Z,9432
2017-06-24T07:14:50.374Z,11552
2017-06-24T07:15:51.668Z,12780
2017-06-24T07:16:52.898Z,12980
2017-06-24T07:17:54.160Z,10992
2017-06-24T07:18:55.461Z,14052
2017-06-24T07:19:56.710Z,16244
2017-06-24T07:20:57.989Z,14688
2017-06-24T07:21:59.285Z,14152
2017-06-24T07:23:00.585Z,11008
2017-06-24T07:24:01.845Z,13160
2017-06-24T07:25:03.114Z,18272
2017-06-24T07:26:04.393Z,14256
2017-06-24T07:27:05.831Z,16768
2017-06-24T07:28:07.054Z,15996
2017-06-24T07:29:08.331Z,11500
2017-06-24T07:30:09.616Z,13120
2017-06-24T07:31:10.922Z,14244
2017-06-24T07:32:12.191Z,19520
2017-06-24T07:33:13.495Z,17536
2017-06-24T07:34:14.769Z,21152
2017-06-24T07:35:16.027Z,16080
2017-06-24T07:36:17.302Z,12760
2017-06-24T07:37:18.732Z,15380
2017-06-24T07:38:20.069Z,21824
2017-06-24T07:39:21.353Z,50912
2017-06-24T07:40:22.626Z,46208
2017-06-24T07:41:23.881Z,42848
2017-06-24T07:42:25.184Z,34080
2017-06-24T07:43:26.560Z,35328
2017-06-24T07:44:27.835Z,33088
2017-06-24T07:45:29.111Z,27200
2017-06-24T07:46:30.422Z,26816
2017-06-24T07:47:31.673Z,24000
2017-06-24T07:48:33.079Z,21440
2017-06-24T07:49:34.420Z,25536
2017-06-24T07:50:35.707Z,18368
2017-06-24T07:51:36.999Z,15988
2017-06-24T07:52:38.291Z,14156
2017-06-24T07:53:39.742Z,13656
2017-06-24T07:54:40.995Z,14620
2017-06-24T07:55:42.258Z,15124
2017-06-24T07:56:43.513Z,15716
2017-06-24T07:57:44.797Z,15776
2017-06-24T07:58:46.083Z,14880
2017-06-24T07:59:47.508Z,16092
2017-06-24T08:00:48.750Z,17440
2017-06-24T08:01:50.057Z,16040
2017-06-24T08:02:51.311Z,16040
2017-06-24T08:03:52.573Z,14060
2017-06-24T08:04:53.837Z,11312
2017-06-24T08:05:55.196Z,10108
2017-06-24T08:06:56.485Z,8980
2017-06-24T08:07:57.767Z,7792
2017-06-24T08:08:59.015Z,9532
2017-06-24T08:10:00.280Z,12952
2017-06-24T08:11:01.673Z,13792
2017-06-24T08:12:02.860Z,12276
2017-06-24T08:13:04.091Z,13236
2017-06-24T08:14:05.351Z,14644
2017-06-24T08:15:06.614Z,14600
2017-06-24T08:16:08.046Z,13824
2017-06-24T08:17:09.197Z,13364
2017-06-24T08:18:10.534Z,12844
2017-06-24T08:19:11.810Z,11912
2017-06-24T08:20:13.072Z,10764
2017-06-24T08:21:14.480Z,9660
2017-06-24T08:22:15.738Z,9916
2017-06-24T08:23:17.123Z,10828
2017-06-24T08:24:18.414Z,10924
2017-06-24T08:25:19.720Z,11196
2017-06-24T08:26:20.983Z,10664
2017-06-24T08:27:22.563Z,10396
2017-06-24T08:28:23.855Z,10540
2017-06-24T08:29:25.071Z,10632
2017-06-24T08:30:26.453Z,10104
2017-06-24T08:31:27.711Z,10440
2017-06-24T08:32:29.000Z,10084
2017-06-24T08:33:30.262Z,10224
2017-06-24T08:34:31.508Z,10916
2017-06-24T08:35:32.767Z,13580
2017-06-24T08:36:34.059Z,15768
2017-06-24T08:37:35.365Z,17024
2017-06-24T08:38:36.852Z,17440
2017-06-24T08:39:38.125Z,18400
2017-06-24T08:40:39.420Z,21824
2017-06-24T08:41:40.659Z,21984
2017-06-24T08:42:41.949Z,20512
2017-06-24T08:43:43.345Z,24384
2017-06-24T08:44:44.699Z,23680
2017-06-24T08:45:46.022Z,20128
2017-06-24T08:46:47.467Z,20736
2017-06-24T08:47:48.762Z,23040
2017-06-24T08:48:50.136Z,22816
2017-06-24T08:49:51.489Z,21472
2017-06-24T08:50:52.785Z,24224
2017-06-24T08:51:54.057Z,27104
2017-06-24T08:52:55.319Z,28064
2017-06-24T08:53:56.670Z,35968
2017-06-24T08:54:57.947Z,33440
2017-06-24T08:55:59.244Z,31168
2017-06-24T08:57:00.555Z,28864
2017-06-24T08:58:01.874Z,27232
2017-06-24T08:59:03.283Z,21856
2017-06-24T09:00:04.716Z,19168
2017-06-24T09:01:05.955Z,17888
2017-06-24T09:02:07.241Z,16052
2017-06-24T09:03:08.485Z,15240
2017-06-24T09:04:09.770Z,14184
2017-06-24T09:05:11.059Z,12608
2017-06-24T09:06:12.567Z,12804
2017-06-24T09:07:13.816Z,12104
2017-06-24T09:08:15.111Z,11552
2017-06-24T09:09:16.373Z,11360
2017-06-24T09:10:17.636Z,10724
2017-06-24T09:11:18.903Z,10324
2017-06-24T09:12:20.233Z,9888
2017-06-24T09:13:21.504Z,9456
2017-06-24T09:14:22.794Z,9168
2017-06-24T09:15:24.130Z,8760
2017-06-24T09:16:25.377Z,8736
2017-06-24T09:17:26.665Z,7988
2017-06-24T09:18:27.948Z,7388
2017-06-24T09:19:29.225Z,7652
2017-06-24T09:20:30.522Z,7352
2017-06-24T09:21:31.767Z,7688
2017-06-24T09:22:33.092Z,7632
2017-06-24T09:23:34.418Z,7736
2017-06-24T09:24:35.707Z,7648
2017-06-24T09:25:37.010Z,7708
2017-06-24T09:26:38.304Z,7916
2017-06-24T09:27:39.570Z,7548
2017-06-24T09:28:40.896Z,7768
2017-06-24T09:29:42.164Z,7628
2017-06-24T09:30:43.469Z,8332
2017-06-24T09:31:44.743Z,8324
2017-06-24T09:32:46.034Z,8144
2017-06-24T09:33:47.320Z,7900
2017-06-24T09:34:48.650Z,9176
2017-06-24T09:35:49.956Z,9560
2017-06-24T09:36:51.203Z,9448
2017-06-24T09:37:52.446Z,10108
2017-06-24T09:38:53.731Z,9568
2017-06-24T09:39:55.084Z,10524
2017-06-24T09:40:56.372Z,12840
2017-06-24T09:41:57.671Z,15480
2017-06-24T09:42:58.915Z,12884
2017-06-24T09:44:00.335Z,14088
2017-06-24T09:45:01.471Z,12604
2017-06-24T09:46:03.000Z,12932
2017-06-24T09:47:04.277Z,10548
2017-06-24T09:48:05.576Z,11304
2017-06-24T09:49:06.801Z,10024
2017-06-24T09:50:08.196Z,9596
2017-06-24T09:51:09.469Z,11628
2017-06-24T09:52:10.730Z,10616
2017-06-24T09:53:12.016Z,13460
2017-06-24T09:54:13.284Z,12732
2017-06-24T09:55:14.611Z,10184
2017-06-24T09:56:15.895Z,9784
2017-06-24T09:57:17.159Z,9260
2017-06-24T09:58:18.458Z,8328
2017-06-24T09:59:19.772Z,8524
2017-06-24T10:00:21.056Z,8152
2017-06-24T10:01:22.287Z,7904
2017-06-24T10:02:23.545Z,8080
2017-06-24T10:03:24.850Z,8004
2017-06-24T10:04:26.118Z,7696
2017-06-24T10:05:27.363Z,7452
2017-06-24T10:06:28.666Z,7684
2017-06-24T10:07:29.921Z,7776
2017-06-24T10:08:31.165Z,8264
2017-06-24T10:09:32.512Z,8536
2017-06-24T10:10:33.894Z,8340
2017-06-24T10:11:35.146Z,8224
2017-06-24T10:12:36.419Z,8292
2017-06-24T10:13:37.702Z,8848
2017-06-24T10:14:39.002Z,7676
2017-06-24T10:15:40.255Z,8580
2017-06-24T10:16:41.597Z,7636
2017-06-24T10:17:42.822Z,7728
2017-06-24T10:18:44.081Z,7540
2017-06-24T10:19:45.358Z,8352
2017-06-24T10:20:46.707Z,8024
2017-06-24T10:21:48.026Z,8820
2017-06-24T10:22:49.322Z,10012
2017-06-24T10:23:50.544Z,8928
2017-06-24T10:24:51.875Z,8076
2017-06-24T10:25:53.190Z,8684
2017-06-24T10:26:54.577Z,8136
2017-06-24T10:27:55.840Z,7684
2017-06-24T10:28:57.120Z,7052
2017-06-24T10:29:58.406Z,7196
2017-06-24T10:30:59.699Z,7008
2017-06-24T10:32:01.029Z,8228
2017-06-24T10:33:02.299Z,8284
2017-06-24T10:34:03.629Z,7820
2017-06-24T10:35:04.919Z,8276
2017-06-24T10:36:06.189Z,8132
2017-06-24T10:37:07.480Z,8764
2017-06-24T10:38:08.757Z,11132
2017-06-24T10:39:09.988Z,9444
2017-06-24T10:40:11.291Z,7624
2017-06-24T10:41:12.566Z,9756
2017-06-24T10:42:13.827Z,10732
2017-06-24T10:43:15.210Z,10716
2017-06-24T10:44:16.543Z,11268
2017-06-24T10:45:17.850Z,10692
2017-06-24T10:46:19.093Z,9692
2017-06-24T10:47:20.540Z,8448
2017-06-24T10:48:21.881Z,11900
2017-06-24T10:49:23.206Z,11968
2017-06-24T10:50:24.459Z,12800
2017-06-24T10:51:25.726Z,10112
2017-06-24T10:52:26.990Z,14180
2017-06-24T10:53:28.245Z,14284
2017-06-24T10:54:29.517Z,13272
2017-06-24T10:55:30.832Z,10376
2017-06-24T10:56:32.213Z,13672
2017-06-24T10:57:33.436Z,11348
2017-06-24T10:58:34.719Z,11580
2017-06-24T10:59:36.098Z,12116
2017-06-24T11:00:37.345Z,12856
2017-06-24T11:01:38.640Z,16480
2017-06-24T11:02:39.889Z,15680
2017-06-24T11:03:41.203Z,13860
2017-06-24T11:04:42.468Z,11964
2017-06-24T11:05:43.862Z,16188
2017-06-24T11:06:45.135Z,23136
2017-06-24T11:07:46.402Z,19328
2017-06-24T11:08:47.655Z,17280
2017-06-24T11:09:48.931Z,19360
2017-06-24T11:10:50.239Z,13628
2017-06-24T11:11:51.524Z,15716
2017-06-24T11:12:52.842Z,13024
2017-06-24T11:13:54.136Z,14336
2017-06-24T11:14:55.457Z,16864
2017-06-24T11:15:56.773Z,18528
2017-06-24T11:16:58.187Z,14012
2017-06-24T11:17:59.471Z,17856
2017-06-24T11:19:00.748Z,14832
2017-06-24T11:20:02.021Z,14860
2017-06-24T11:21:03.277Z,11508
2017-06-24T11:22:04.575Z,11880
2017-06-24T11:23:05.900Z,11736
2017-06-24T11:24:07.162Z,11104
2017-06-24T11:25:08.449Z,13888
2017-06-24T11:26:09.720Z,12172
2017-06-24T11:27:10.992Z,15076
2017-06-24T11:28:12.293Z,15756
2017-06-24T11:29:13.503Z,15064
2017-06-24T11:30:14.907Z,17344
2017-06-24T11:31:16.212Z,10392
2017-06-24T11:32:17.483Z,9496
2017-06-24T11:33:18.758Z,10124
2017-06-24T11:34:20.083Z,8912
2017-06-24T11:35:21.410Z,8224
2017-06-24T11:36:22.750Z,8696
2017-06-24T11:37:24.010Z,9832
2017-06-24T11:38:25.306Z,8908
2017-06-24T11:39:26.694Z,9316
2017-06-24T11:40:27.961Z,8552
2017-06-24T11:41:29.215Z,10104
2017-06-24T11:42:30.551Z,9628
2017-06-24T11:43:31.814Z,11412
2017-06-24T11:44:33.071Z,10380
2017-06-24T11:45:34.318Z,8720
2017-06-24T11:46:35.591Z,8240
2017-06-24T11:47:36.872Z,9720
2017-06-24T11:48:38.133Z,10524
2017-06-24T11:49:39.403Z,10296
2017-06-24T11:50:40.683Z,11468
2017-06-24T11:51:42.022Z,18528
2017-06-24T11:52:43.334Z,14192
2017-06-24T11:53:44.692Z,15600
2017-06-24T11:54:45.945Z,14072
2017-06-24T11:55:47.254Z,13036
2017-06-24T11:56:48.522Z,10776
2017-06-24T11:57:49.790Z,8540
2017-06-24T11:58:51.145Z,7868
2017-06-24T11:59:52.399Z,7448
2017-06-24T12:00:53.704Z,6588
2017-06-24T12:01:54.952Z,8160
2017-06-24T12:02:56.308Z,7684
2017-06-24T12:03:57.669Z,6392
2017-06-24T12:04:58.910Z,7828
2017-06-24T12:06:00.187Z,8440
2017-06-24T12:07:01.574Z,8144
2017-06-24T12:08:02.884Z,6124
2017-06-24T12:09:04.168Z,5076
2017-06-24T12:10:05.423Z,4976
2017-06-24T12:11:06.704Z,5740
2017-06-24T12:12:07.965Z,6740
2017-06-24T12:13:09.246Z,7852
2017-06-24T12:14:10.587Z,5756
2017-06-24T12:15:12.003Z,5780
2017-06-24T12:16:13.270Z,7196
2017-06-24T12:17:14.606Z,8024
2017-06-24T12:18:15.860Z,7112
2017-06-24T12:19:17.144Z,6696
2017-06-24T12:20:18.407Z,7396
2017-06-24T12:21:19.692Z,6408
2017-06-24T12:22:20.953Z,6388
2017-06-24T12:23:22.204Z,6524
2017-06-24T12:24:23.599Z,6516
2017-06-24T12:25:24.945Z,6388
2017-06-24T12:26:26.293Z,5640
2017-06-24T12:27:27.538Z,4884
2017-06-24T12:28:28.797Z,5276
2017-06-24T12:29:30.071Z,5524
2017-06-24T12:30:31.391Z,5488
2017-06-24T12:31:32.661Z,5192
2017-06-24T12:32:33.952Z,6140
2017-06-24T12:33:35.216Z,5404
2017-06-24T12:34:36.503Z,5276
2017-06-24T12:35:37.819Z,5880
2017-06-24T12:36:39.126Z,5148
2017-06-24T12:37:40.406Z,4764
2017-06-24T12:38:41.663Z,4576
2017-06-24T12:39:42.946Z,4636
2017-06-24T12:40:44.173Z,4800
2017-06-24T12:41:45.477Z,4780
2017-06-24T12:42:46.832Z,4804
2017-06-24T12:43:48.184Z,5560
2017-06-24T12:44:49.457Z,5752
2017-06-24T12:45:50.709Z,7288
2017-06-24T12:46:51.988Z,9000
2017-06-24T12:47:53.393Z,7908
2017-06-24T12:48:54.893Z,7104
2017-06-24T12:49:56.265Z,5848
2017-06-24T12:50:57.501Z,5616
2017-06-24T12:51:58.787Z,5096
2017-06-24T12:53:00.079Z,5616
2017-06-24T12:54:01.349Z,5876
2017-06-24T12:55:02.605Z,7388
2017-06-24T12:56:03.931Z,6524
2017-06-24T12:57:05.196Z,6372
2017-06-24T12:58:06.522Z,6140
2017-06-24T12:59:07.800Z,6180
2017-06-24T13:00:09.283Z,6092
2017-06-24T13:01:10.533Z,5524
2017-06-24T13:02:11.787Z,5792
2017-06-24T13:03:13.099Z,6396
2017-06-24T13:04:14.350Z,6252
2017-06-24T13:05:15.658Z,6328
2017-06-24T13:06:16.993Z,6028
2017-06-24T13:07:18.262Z,5264
2017-06-24T13:08:19.559Z,5676
2017-06-24T13:09:20.831Z,7516
2017-06-24T13:10:22.151Z,8520
2017-06-24T13:11:23.428Z,6728
2017-06-24T13:12:24.725Z,6296
2017-06-24T13:13:26.018Z,5688
2017-06-24T13:14:27.301Z,5620
2017-06-24T13:15:28.558Z,5716
2017-06-24T13:16:29.826Z,5072
2017-06-24T13:17:31.114Z,4808
2017-06-24T13:18:32.443Z,4600
2017-06-24T13:19:33.719Z,4700
2017-06-24T13:20:34.993Z,5044
2017-06-24T13:21:36.322Z,5472
2017-06-24T13:22:37.549Z,5316
2017-06-24T13:23:38.808Z,5084
2017-06-24T13:24:40.059Z,4860
2017-06-24T13:25:41.316Z,5112
2017-06-24T13:26:42.597Z,5140
2017-06-24T13:27:43.837Z,4400
2017-06-24T13:28:45.117Z,3960
2017-06-24T13:29:46.456Z,3592
2017-06-24T13:30:47.726Z,4128
2017-06-24T13:31:48.981Z,4092
2017-06-24T13:32:50.228Z,3896
2017-06-24T13:33:51.547Z,3684
2017-06-24T13:34:52.752Z,3524
2017-06-24T13:35:54.046Z,3744
2017-06-24T13:36:55.296Z,3828
2017-06-24T13:37:56.635Z,3912
2017-06-24T13:38:57.913Z,4264
2017-06-24T13:39:59.258Z,5016
2017-06-24T13:41:00.493Z,4936
2017-06-24T13:42:01.813Z,4052
2017-06-24T13:43:03.092Z,4064
2017-06-24T13:44:04.331Z,4816
2017-06-24T13:45:05.617Z,5400
2017-06-24T13:46:06.967Z,5324
2017-06-24T13:47:08.314Z,5188
2017-06-24T13:48:09.579Z,5244
2017-06-24T13:49:10.845Z,5820